createdAt,value
2024-01-22T00:02:11.849Z,2.70
2024-01-22T00:05:01.231Z,2.70
2024-01-22T00:07:49.230Z,2.70
2024-01-22T00:10:37.233Z,2.70
2024-01-22T00:13:25.214Z,2.70
2024-01-22T00:16:13.960Z,2.70
2024-01-22T00:19:02.198Z,2.80
2024-01-22T00:21:51.584Z,2.80
2024-01-22T00:24:39.605Z,2.80
2024-01-22T00:27:27.666Z,2.90
2024-01-22T00:30:16.803Z,2.90
2024-01-22T00:33:05.510Z,2.90
2024-01-22T00:35:53.873Z,3.00
2024-01-22T00:38:43.704Z,3.00
2024-01-22T00:41:31.765Z,2.90
2024-01-22T00:44:19.786Z,2.90
2024-01-22T00:47:08.022Z,3.00
2024-01-22T00:49:56.333Z,3.00
2024-01-22T00:52:44.499Z,3.00
2024-01-22T00:55:34.573Z,3.00
2024-01-22T00:58:22.518Z,3.10
2024-01-22T01:01:10.601Z,3.10
2024-01-22T01:03:58.666Z,3.10
2024-01-22T01:06:46.721Z,3.10
2024-01-22T01:09:35.212Z,3.10
2024-01-22T01:12:24.584Z,3.10
2024-01-22T01:15:13.177Z,3.30
2024-01-22T01:18:01.370Z,3.10
2024-01-22T01:20:49.437Z,3.10
2024-01-22T01:23:37.592Z,3.20
2024-01-22T01:26:25.597Z,3.10
2024-01-22T01:29:15.102Z,3.20
2024-01-22T01:32:03.198Z,3.20
2024-01-22T01:34:51.299Z,3.20
2024-01-22T01:37:39.482Z,3.20
2024-01-22T01:40:28.024Z,3.30
2024-01-22T01:43:17.366Z,3.30
2024-01-22T01:46:06.767Z,3.30
2024-01-22T01:48:55.603Z,3.30
2024-01-22T01:51:43.778Z,3.30
2024-01-22T01:54:32.518Z,3.30
2024-01-22T01:57:23.970Z,3.30
2024-01-22T02:00:14.781Z,3.40
2024-01-22T02:03:04.497Z,3.40
2024-01-22T02:05:52.711Z,3.40
2024-01-22T02:08:40.887Z,3.40
2024-01-22T02:11:28.919Z,3.40
2024-01-22T02:14:16.954Z,3.40
2024-01-22T02:17:05.010Z,3.50
2024-01-22T02:19:54.535Z,3.50
2024-01-22T02:22:42.638Z,3.50
2024-01-22T02:25:32.154Z,3.50
2024-01-22T02:28:20.239Z,3.60
2024-01-22T02:31:09.941Z,3.60
2024-01-22T02:33:58.151Z,3.60
2024-01-22T02:36:46.505Z,3.60
2024-01-22T02:39:34.852Z,3.60
2024-01-22T02:42:24.207Z,3.70
2024-01-22T02:45:12.968Z,3.70
2024-01-22T02:48:01.198Z,3.70
2024-01-22T02:50:49.380Z,3.70
2024-01-22T02:53:38.461Z,3.70
2024-01-22T02:56:26.671Z,3.70
2024-01-22T02:59:16.942Z,3.70
2024-01-22T03:02:05.235Z,3.80
2024-01-22T03:04:53.488Z,3.80
2024-01-22T03:07:41.561Z,3.80
2024-01-22T03:10:29.590Z,3.90
2024-01-22T03:13:17.686Z,3.90
2024-01-22T03:16:07.679Z,3.90
2024-01-22T03:18:56.273Z,3.90
2024-01-22T03:21:44.480Z,3.90
2024-01-22T03:24:33.266Z,3.90
2024-01-22T03:27:21.422Z,3.90
2024-01-22T03:30:10.410Z,4.00
2024-01-22T03:32:59.878Z,4.00
2024-01-22T03:35:48.165Z,4.00
2024-01-22T03:38:36.234Z,4.00
2024-01-22T03:41:24.307Z,4.00
2024-01-22T03:44:12.589Z,4.00
2024-01-22T03:47:00.633Z,4.00
2024-01-22T03:49:50.149Z,4.00
2024-01-22T03:52:38.186Z,4.00
2024-01-22T03:55:26.284Z,4.10
2024-01-22T03:58:14.721Z,4.10
2024-01-22T04:01:03.846Z,4.10
2024-01-22T04:03:52.772Z,4.10
2024-01-22T04:06:42.305Z,4.10
2024-01-22T04:09:30.393Z,4.10
2024-01-22T04:12:19.355Z,4.10
2024-01-22T04:15:09.163Z,4.10
2024-01-22T04:17:57.376Z,4.10
2024-01-22T04:20:45.587Z,4.10
2024-01-22T04:23:36.010Z,4.20
2024-01-22T04:26:24.505Z,4.20
2024-01-22T04:29:12.549Z,4.20
2024-01-22T04:32:00.686Z,4.20
2024-01-22T04:34:49.041Z,4.20
2024-01-22T04:37:37.363Z,4.30
2024-01-22T04:40:27.155Z,4.30
2024-01-22T04:43:15.368Z,4.30
2024-01-22T04:46:03.938Z,4.30
2024-01-22T04:48:52.082Z,4.40
2024-01-22T04:51:43.155Z,4.40
2024-01-22T04:54:31.185Z,4.40
2024-01-22T04:57:20.679Z,4.40
2024-01-22T05:00:09.993Z,4.40
2024-01-22T05:02:58.207Z,4.40
2024-01-22T05:05:46.597Z,4.50
2024-01-22T05:08:34.897Z,4.50
2024-01-22T05:11:23.510Z,4.50
2024-01-22T05:14:12.973Z,4.50
2024-01-22T05:17:00.985Z,4.50
2024-01-22T05:19:49.172Z,4.50
2024-01-22T05:22:37.701Z,4.50
2024-01-22T05:25:25.754Z,4.50
2024-01-22T05:28:13.810Z,4.50
2024-01-22T05:31:03.779Z,4.50
2024-01-22T05:33:52.057Z,4.60
2024-01-22T05:36:41.368Z,4.60
2024-01-22T05:39:29.427Z,4.60
2024-01-22T05:42:17.520Z,4.60
2024-01-22T05:45:06.299Z,4.60
2024-01-22T05:47:56.211Z,4.60
2024-01-22T05:50:44.414Z,4.60
2024-01-22T05:53:32.434Z,4.60
2024-01-22T05:56:26.435Z,4.60
2024-01-22T05:59:14.473Z,4.60
2024-01-22T06:02:02.552Z,4.60
2024-01-22T06:04:52.009Z,4.60
2024-01-22T06:07:40.223Z,4.60
2024-01-22T06:10:28.434Z,4.70
2024-01-22T06:13:16.466Z,4.70
2024-01-22T06:16:04.747Z,4.70
2024-01-22T06:18:52.878Z,4.70
2024-01-22T06:21:42.299Z,4.80
2024-01-22T06:24:30.386Z,4.80
2024-01-22T06:27:18.748Z,4.80
2024-01-22T06:30:08.151Z,4.90
2024-01-22T06:32:56.338Z,4.90
2024-01-22T06:35:45.453Z,4.90
2024-01-22T06:38:35.388Z,4.90
2024-01-22T06:41:24.630Z,5.00
2024-01-22T06:44:13.500Z,4.90
2024-01-22T06:47:02.071Z,4.90
2024-01-22T06:49:50.248Z,5.00
2024-01-22T06:52:38.696Z,5.00
2024-01-22T06:55:28.101Z,5.00
2024-01-22T06:58:17.710Z,5.00
2024-01-22T07:01:06.901Z,5.00
2024-01-22T07:03:55.277Z,5.00
2024-01-22T07:06:43.487Z,5.00
2024-01-22T07:09:31.600Z,5.00
2024-01-22T07:12:22.117Z,5.00
2024-01-22T07:15:14.237Z,5.00
2024-01-22T07:18:03.358Z,5.00
2024-01-22T07:20:51.450Z,5.10
2024-01-22T07:23:39.869Z,5.10
2024-01-22T07:26:28.062Z,5.10
2024-01-22T07:29:17.648Z,5.20
2024-01-22T07:32:05.921Z,5.20
2024-01-22T07:34:54.444Z,5.20
2024-01-22T07:37:46.275Z,5.20
2024-01-22T07:40:35.083Z,5.20
2024-01-22T07:43:23.073Z,5.20
2024-01-22T07:46:12.584Z,5.20
2024-01-22T07:49:00.861Z,5.20
2024-01-22T07:51:48.966Z,5.30
2024-01-22T07:54:36.972Z,5.30
2024-01-22T07:57:25.073Z,5.30
2024-01-22T08:00:14.226Z,5.30
2024-01-22T08:03:03.743Z,5.30
2024-01-22T08:05:51.928Z,5.30
2024-01-22T08:08:42.418Z,5.30
2024-01-22T08:11:30.548Z,5.40
2024-01-22T08:14:18.654Z,5.30
2024-01-22T08:17:06.668Z,5.40
2024-01-22T08:19:56.185Z,5.40
2024-01-22T08:22:44.829Z,5.40
2024-01-22T08:25:32.965Z,5.40
2024-01-22T08:28:21.162Z,5.50
2024-01-22T08:31:09.156Z,5.50
2024-01-22T08:33:58.162Z,5.50
2024-01-22T08:36:47.707Z,5.50
2024-01-22T08:39:35.891Z,5.50
2024-01-22T08:42:24.111Z,5.50
2024-01-22T08:45:12.276Z,5.60
2024-01-22T08:48:00.404Z,5.60
2024-01-22T08:50:48.563Z,5.60
2024-01-22T08:53:37.986Z,5.60
2024-01-22T08:56:26.252Z,5.60
2024-01-22T08:59:16.021Z,5.60
2024-01-22T09:02:04.219Z,5.70
2024-01-22T09:04:52.309Z,5.70
2024-01-22T09:07:40.599Z,5.70
2024-01-22T09:10:30.138Z,5.70
2024-01-22T09:13:18.182Z,5.80
2024-01-22T09:16:06.842Z,5.80
2024-01-22T09:18:55.077Z,5.80
2024-01-22T09:21:44.529Z,5.80
2024-01-22T09:24:32.600Z,5.80
2024-01-22T09:27:21.995Z,5.80
2024-01-22T09:30:10.598Z,5.80
2024-01-22T09:33:00.328Z,5.90
2024-01-22T09:35:48.598Z,5.90
2024-01-22T09:38:36.608Z,5.90
2024-01-22T09:41:24.767Z,5.90
2024-01-22T09:44:15.025Z,6.00
2024-01-22T09:47:04.599Z,6.00
2024-01-22T09:49:53.217Z,6.00
2024-01-22T09:52:45.456Z,6.00
2024-01-22T09:55:34.894Z,6.00
2024-01-22T09:58:29.692Z,6.00
2024-01-22T10:01:19.753Z,6.10
2024-01-22T10:04:08.161Z,6.10
2024-01-22T10:06:56.993Z,6.10
2024-01-22T10:09:45.884Z,6.20
2024-01-22T10:13:00.813Z,6.20
2024-01-22T10:15:49.298Z,6.20
2024-01-22T10:18:39.335Z,6.20
2024-01-22T10:21:28.254Z,6.20
2024-01-22T10:24:17.122Z,6.20
2024-01-22T10:27:15.620Z,6.30
2024-01-22T10:30:11.887Z,6.30
2024-01-22T10:33:13.844Z,6.40
2024-01-22T10:36:16.665Z,6.40
2024-01-22T10:39:06.041Z,6.40
2024-01-22T10:41:56.298Z,6.40
2024-01-22T10:44:47.239Z,6.50
2024-01-22T10:47:36.457Z,6.50
2024-01-22T10:50:27.162Z,6.50
2024-01-22T10:53:18.517Z,6.50
2024-01-22T10:56:13.931Z,6.60
2024-01-22T10:59:09.325Z,6.60
2024-01-22T11:02:00.492Z,6.70
2024-01-22T11:04:49.004Z,6.70
2024-01-22T11:07:41.585Z,6.70
2024-01-22T11:10:31.979Z,6.80
2024-01-22T11:13:20.320Z,6.80
2024-01-22T11:16:08.772Z,6.80
2024-01-22T11:18:58.368Z,6.80
2024-01-22T11:21:46.592Z,6.80
2024-01-22T11:24:34.756Z,6.90
2024-01-22T11:27:38.064Z,6.90
2024-01-22T11:30:30.570Z,6.90
2024-01-22T11:33:36.724Z,6.90
2024-01-22T11:36:32.981Z,6.90
2024-01-22T11:39:44.415Z,6.90
2024-01-22T11:42:34.208Z,7.00
2024-01-22T11:45:27.860Z,7.00
2024-01-22T11:48:19.364Z,7.00
2024-01-22T11:51:09.398Z,7.00
2024-01-22T11:53:58.922Z,7.10
2024-01-22T11:56:47.316Z,7.10
2024-01-22T11:59:36.888Z,7.20
2024-01-22T12:02:24.939Z,7.20
2024-01-22T12:05:15.884Z,7.20
2024-01-22T12:08:03.975Z,7.20
2024-01-22T12:10:54.112Z,7.30
2024-01-22T12:13:43.492Z,7.20
2024-01-22T12:16:32.769Z,7.20
2024-01-22T12:19:20.830Z,7.20
2024-01-22T12:22:09.032Z,7.20
2024-01-22T12:25:08.398Z,7.20
2024-01-22T12:28:05.356Z,7.20
2024-01-22T12:31:00.951Z,7.20
2024-01-22T12:33:51.475Z,7.30
2024-01-22T12:36:40.041Z,7.30
2024-01-22T12:39:31.123Z,7.40
2024-01-22T12:42:20.971Z,7.30
2024-01-22T12:45:14.051Z,7.30
2024-01-22T12:48:02.290Z,7.30
2024-01-22T12:50:51.955Z,7.30
2024-01-22T12:53:42.498Z,7.30
2024-01-22T12:56:30.682Z,7.30
2024-01-22T12:59:18.881Z,7.20
2024-01-22T13:02:07.497Z,7.20
2024-01-22T13:04:56.032Z,7.30
2024-01-22T13:07:45.471Z,7.20
2024-01-22T13:10:34.608Z,7.20
2024-01-22T13:13:22.662Z,7.20
2024-01-22T13:16:14.647Z,7.20
2024-01-22T13:19:06.362Z,7.20
2024-01-22T13:21:54.669Z,7.20
2024-01-22T13:24:44.308Z,7.20
2024-01-22T13:27:33.667Z,7.20
2024-01-22T13:30:23.553Z,7.30
2024-01-22T13:33:12.141Z,7.30
2024-01-22T13:36:00.521Z,7.30
2024-01-22T13:38:48.666Z,7.30
2024-01-22T13:41:38.392Z,7.30
2024-01-22T13:44:26.438Z,7.30
2024-01-22T13:47:21.603Z,7.30
2024-01-22T13:50:20.899Z,7.40
2024-01-22T13:53:11.511Z,7.40
2024-01-22T13:55:59.685Z,7.40
2024-01-22T13:58:50.708Z,7.40
2024-01-22T14:01:38.916Z,7.50
2024-01-22T14:04:26.960Z,7.50
2024-01-22T14:07:15.155Z,7.60
2024-01-22T14:10:03.292Z,7.60
2024-01-22T14:12:51.424Z,7.70
2024-01-22T14:15:40.854Z,7.70
2024-01-22T14:18:29.826Z,7.80
2024-01-22T14:21:19.009Z,7.80
2024-01-22T14:24:07.633Z,8.00
2024-01-22T14:26:55.828Z,7.90
2024-01-22T14:29:43.986Z,7.90
2024-01-22T14:32:33.444Z,7.90
2024-01-22T14:35:22.581Z,8.00
2024-01-22T14:38:11.208Z,8.10
2024-01-22T14:41:00.631Z,8.10
2024-01-22T14:43:49.218Z,8.10
2024-01-22T14:46:42.328Z,8.10
2024-01-22T14:49:33.231Z,8.10
2024-01-22T14:52:22.097Z,8.20
2024-01-22T14:55:10.384Z,8.20
2024-01-22T14:57:58.362Z,8.20
2024-01-22T15:00:46.435Z,8.10
2024-01-22T15:03:34.505Z,8.10
2024-01-22T15:06:23.851Z,8.10
2024-01-22T15:09:14.372Z,8.10
2024-01-22T15:12:02.598Z,8.00
2024-01-22T15:14:50.709Z,7.90
2024-01-22T15:17:39.082Z,7.90
2024-01-22T15:20:27.119Z,7.90
2024-01-22T15:23:17.855Z,8.00
2024-01-22T15:26:06.553Z,7.90
2024-01-22T15:28:56.641Z,7.80
2024-01-22T15:31:46.262Z,7.80
2024-01-22T15:34:35.751Z,7.80
2024-01-22T15:37:23.884Z,7.80
2024-01-22T15:40:14.981Z,7.80
2024-01-22T15:43:03.093Z,7.80
2024-01-22T15:45:51.500Z,7.70
2024-01-22T15:48:39.636Z,7.70
2024-01-22T15:51:27.794Z,7.60
2024-01-22T15:54:16.202Z,7.60
2024-01-22T15:57:05.869Z,7.60
2024-01-22T15:59:53.902Z,7.60
2024-01-22T16:02:42.659Z,7.50
2024-01-22T16:05:31.153Z,7.50
2024-01-22T16:08:21.884Z,7.50
2024-01-22T16:11:10.035Z,7.50
2024-01-22T16:13:59.641Z,7.50
2024-01-22T16:16:47.663Z,7.50
2024-01-22T16:19:37.210Z,7.50
2024-01-22T16:22:25.661Z,7.50
2024-01-22T16:25:16.222Z,7.50
2024-01-22T16:28:07.441Z,7.50
2024-01-22T16:30:57.139Z,7.40
2024-01-22T16:33:45.956Z,7.40
2024-01-22T16:36:41.625Z,7.40
2024-01-22T16:39:31.903Z,7.30
2024-01-22T16:42:19.986Z,7.20
2024-01-22T16:45:08.719Z,7.10
2024-01-22T16:47:58.147Z,7.10
2024-01-22T16:50:46.392Z,7.10
2024-01-22T16:53:35.027Z,7.00
2024-01-22T16:56:23.021Z,7.00
2024-01-22T16:59:11.158Z,7.00
2024-01-22T17:01:59.181Z,6.90
2024-01-22T17:04:48.975Z,6.90
2024-01-22T17:07:37.242Z,6.90
2024-01-22T17:10:25.246Z,6.90
2024-01-22T17:13:13.531Z,6.90
2024-01-22T17:16:05.610Z,6.90
2024-01-22T17:18:54.414Z,6.90
2024-01-22T17:21:44.453Z,6.90
2024-01-22T17:24:32.487Z,6.90
2024-01-22T17:27:20.718Z,7.00
2024-01-22T17:30:10.046Z,6.90
2024-01-22T17:32:58.334Z,6.90
2024-01-22T17:35:47.010Z,6.90
2024-01-22T17:38:37.224Z,6.90
2024-01-22T17:41:25.463Z,6.80
2024-01-22T17:44:16.330Z,6.90
2024-01-22T17:47:04.456Z,6.90
2024-01-22T17:49:52.474Z,6.90
2024-01-22T17:52:40.400Z,6.90
2024-01-22T17:55:33.323Z,6.90
2024-01-22T17:58:21.491Z,6.90
2024-01-22T18:01:09.524Z,7.00
2024-01-22T18:03:59.857Z,6.90
2024-01-22T18:06:48.085Z,6.90
2024-01-22T18:09:38.058Z,6.90
2024-01-22T18:12:27.476Z,6.90
2024-01-22T18:15:15.521Z,6.90
2024-01-22T18:18:04.363Z,7.00
2024-01-22T18:20:52.428Z,7.00
2024-01-22T18:23:40.427Z,6.90
2024-01-22T18:29:18.437Z,6.90
2024-01-22T18:32:07.450Z,6.90
2024-01-22T18:34:55.500Z,6.80
2024-01-22T18:37:43.541Z,6.80
2024-01-22T18:40:31.680Z,6.80
2024-01-22T18:43:20.089Z,6.80
2024-01-22T18:46:13.688Z,6.80
2024-01-22T18:49:05.457Z,6.80
2024-01-22T18:51:54.501Z,6.80
2024-01-22T18:54:42.491Z,6.80
2024-01-22T18:57:30.730Z,6.80
2024-01-22T19:00:19.490Z,6.90
2024-01-22T19:03:09.050Z,6.90
2024-01-22T19:06:01.571Z,6.90
2024-01-22T19:08:49.681Z,7.00
2024-01-22T19:11:38.038Z,7.00
2024-01-22T19:14:26.015Z,7.00
2024-01-22T19:17:14.020Z,7.00
2024-01-22T19:20:04.702Z,7.00
2024-01-22T19:22:53.684Z,7.00
2024-01-22T19:25:41.841Z,7.00
2024-01-22T19:28:29.932Z,7.00
2024-01-22T19:31:18.129Z,6.90
2024-01-22T19:34:06.289Z,6.90
2024-01-22T19:36:56.387Z,6.90
2024-01-22T19:39:44.850Z,6.80
2024-01-22T19:42:33.153Z,6.80
2024-01-22T19:45:21.262Z,6.80
2024-01-22T19:48:09.849Z,6.80
2024-01-22T19:50:58.260Z,6.80
2024-01-22T19:53:47.690Z,6.80
2024-01-22T19:56:36.022Z,6.80
2024-01-22T19:59:24.245Z,6.80
2024-01-22T20:02:13.512Z,6.80
2024-01-22T20:05:01.773Z,6.80
2024-01-22T20:07:53.540Z,6.80
2024-01-22T20:10:43.274Z,6.80
2024-01-22T20:13:32.359Z,6.80
2024-01-22T20:16:20.410Z,6.80
2024-01-22T20:19:08.611Z,6.80
2024-01-22T20:21:56.686Z,6.80
2024-01-22T20:24:44.749Z,6.90
2024-01-22T20:27:34.814Z,6.80
2024-01-22T20:30:23.301Z,6.90
2024-01-22T20:33:11.809Z,6.90
2024-01-22T20:35:59.988Z,6.90
2024-01-22T20:38:48.116Z,6.90
2024-01-22T20:41:36.195Z,7.00
2024-01-22T20:44:25.634Z,6.90
2024-01-22T20:47:16.801Z,7.00
2024-01-22T20:50:05.618Z,7.00
2024-01-22T20:52:53.695Z,7.00
2024-01-22T20:55:41.813Z,7.00
2024-01-22T20:58:30.281Z,7.00
2024-01-22T21:01:19.745Z,7.00
2024-01-22T21:04:08.096Z,7.00
2024-01-22T21:06:56.338Z,6.90
2024-01-22T21:09:44.708Z,6.90
2024-01-22T21:12:32.895Z,6.90
2024-01-22T21:15:21.146Z,6.90
2024-01-22T21:18:10.723Z,6.90
2024-01-22T21:20:59.809Z,7.00
2024-01-22T21:23:50.852Z,7.00
2024-01-22T21:26:39.049Z,7.00
2024-01-22T21:29:27.955Z,7.00
2024-01-22T21:32:15.975Z,7.00
2024-01-22T21:35:05.902Z,7.00
2024-01-22T21:37:54.200Z,6.90
2024-01-22T21:40:42.306Z,6.90
2024-01-22T21:43:30.761Z,6.90
2024-01-22T21:46:22.681Z,6.90
2024-01-22T21:49:10.857Z,6.90
2024-01-22T21:52:00.324Z,6.90
2024-01-22T21:54:48.502Z,6.90
2024-01-22T21:57:36.774Z,6.90
2024-01-22T22:00:25.193Z,7.00
2024-01-22T22:03:13.353Z,7.00
2024-01-22T22:06:02.090Z,6.90
2024-01-22T22:08:51.646Z,6.90
2024-01-22T22:11:40.204Z,6.90
2024-01-22T22:14:30.086Z,6.80
2024-01-22T22:17:18.351Z,6.80
2024-01-22T22:20:07.745Z,6.80
2024-01-22T22:22:57.387Z,6.80
2024-01-22T22:25:46.842Z,6.80
2024-01-22T22:28:35.100Z,6.90
2024-01-22T22:31:23.090Z,6.80
2024-01-22T22:34:11.433Z,6.90
2024-01-22T22:36:59.819Z,6.90
2024-01-22T22:39:47.892Z,6.90
2024-01-22T22:42:37.467Z,6.90
2024-01-22T22:45:25.699Z,6.90
2024-01-22T22:48:13.985Z,6.90
2024-01-22T22:51:02.071Z,6.90
2024-01-22T22:53:50.147Z,6.90
2024-01-22T22:56:38.302Z,6.90
2024-01-22T22:59:27.664Z,6.90
2024-01-22T23:02:16.082Z,6.90
2024-01-22T23:05:04.613Z,6.90
2024-01-22T23:07:52.759Z,6.90
2024-01-22T23:10:40.790Z,6.90
2024-01-22T23:13:28.768Z,6.90
2024-01-22T23:16:18.085Z,6.80
2024-01-22T23:19:06.258Z,6.70
2024-01-22T23:21:54.452Z,6.70
2024-01-22T23:24:42.797Z,6.70
2024-01-22T23:27:32.612Z,6.60
2024-01-22T23:30:21.830Z,6.50
2024-01-22T23:33:11.499Z,6.30
2024-01-22T23:35:59.635Z,6.10
2024-01-22T23:38:50.808Z,6.00
2024-01-22T23:41:38.884Z,5.80
2024-01-22T23:44:26.907Z,5.70
2024-01-22T23:47:15.221Z,5.70
2024-01-22T23:50:05.022Z,5.80
2024-01-22T23:52:53.174Z,5.90
2024-01-22T23:55:41.255Z,5.90
2024-01-22T23:58:29.528Z,6.00
